Saint-Casimir, Canada
Current Conditions -  °F | °C
As of 9:00 AM on Thursday 29 Jan 2015 (Local Time) from CYOY Reporting Station
Broken Clouds Broken Clouds  
Wind Chill: -4°   Ceiling: 25000
Heat Index: -4°   Visibility: 15mi
Dew Point: -9°   Wind: 0mph
Humidity: 78%   Direction: NA
Pressure: 30.25"   Gusts: NA
Location:  46.67°N, 72.13°W
Report Text: CYOY 291400Z 00000KT 15SM BKN250 M20/M23 A3025 RMK CI2 FST STFDOBS SLP263
Loading
Personal Weather Stations






























Interactive Weather Map New forecast layout! Learn more

10-Day Weather Forecast

Advertisements
Track Severe Weather on mobile